sensor_id;sensor_type;location;lat;lon;timestamp;pressure;altitude;pressure_sealevel;temperature;humidity
19112;BME280;9688;51.906;8.376;2023-04-26T00:00:51;100919.91;;;4.94;85.96
19112;BME280;9688;51.906;8.376;2023-04-26T00:03:38;100928.63;;;4.93;86.29
19112;BME280;9688;51.906;8.376;2023-04-26T00:06:24;100925.16;;;4.94;85.15
19112;BME280;9688;51.906;8.376;2023-04-26T00:09:10;100920.78;;;4.93;85.75
19112;BME280;9688;51.906;8.376;2023-04-26T00:11:56;100931.28;;;4.91;86.16
19112;BME280;9688;51.906;8.376;2023-04-26T00:14:43;100924.34;;;4.89;85.55
19112;BME280;9688;51.906;8.376;2023-04-26T00:17:29;100932.19;;;4.89;85.19
19112;BME280;9688;51.906;8.376;2023-04-26T00:20:15;100925.22;;;4.88;85.00
19112;BME280;9688;51.906;8.376;2023-04-26T00:23:01;100927.00;;;4.86;86.14
19112;BME280;9688;51.906;8.376;2023-04-26T00:25:46;100929.56;;;4.87;86.04
19112;BME280;9688;51.906;8.376;2023-04-26T00:28:31;100927.84;;;4.86;86.01
19112;BME280;9688;51.906;8.376;2023-04-26T00:31:18;100926.16;;;4.81;85.20
19112;BME280;9688;51.906;8.376;2023-04-26T00:34:05;100927.06;;;4.80;85.39
19112;BME280;9688;51.906;8.376;2023-04-26T00:36:50;100930.53;;;4.79;85.23
19112;BME280;9688;51.906;8.376;2023-04-26T00:39:36;100926.19;;;4.78;86.09
19112;BME280;9688;51.906;8.376;2023-04-26T00:42:22;100927.94;;;4.76;86.44
19112;BME280;9688;51.906;8.376;2023-04-26T00:45:08;100927.94;;;4.76;86.04
19112;BME280;9688;51.906;8.376;2023-04-26T00:47:55;100914.00;;;4.74;85.64
19112;BME280;9688;51.906;8.376;2023-04-26T00:50:41;100915.75;;;4.73;85.99
19112;BME280;9688;51.906;8.376;2023-04-26T00:53:27;100913.13;;;4.73;86.43
19112;BME280;9688;51.906;8.376;2023-04-26T00:56:15;100914.94;;;4.69;86.29
19112;BME280;9688;51.906;8.376;2023-04-26T00:59:02;100911.44;;;4.67;85.52
19112;BME280;9688;51.906;8.376;2023-04-26T01:01:47;100914.09;;;4.64;85.46
19112;BME280;9688;51.906;8.376;2023-04-26T01:04:35;100917.63;;;4.59;85.95
19112;BME280;9688;51.906;8.376;2023-04-26T01:07:21;100921.19;;;4.55;86.05
19112;BME280;9688;51.906;8.376;2023-04-26T01:10:07;100917.69;;;4.51;86.23
19112;BME280;9688;51.906;8.376;2023-04-26T01:12:53;100922.09;;;4.47;86.85
19112;BME280;9688;51.906;8.376;2023-04-26T01:15:43;100915.16;;;4.43;86.23
19112;BME280;9688;51.906;8.376;2023-04-26T01:18:29;100926.53;;;4.39;86.05
19112;BME280;9688;51.906;8.376;2023-04-26T01:21:20;100925.69;;;4.36;87.27
19112;BME280;9688;51.906;8.376;2023-04-26T01:24:08;100927.44;;;4.32;86.49
19112;BME280;9688;51.906;8.376;2023-04-26T01:26:54;100924.84;;;4.31;86.95
19112;BME280;9688;51.906;8.376;2023-04-26T01:29:40;100930.09;;;4.29;86.40
19112;BME280;9688;51.906;8.376;2023-04-26T01:32:26;100930.13;;;4.28;86.56
19112;BME280;9688;51.906;8.376;2023-04-26T01:35:11;100924.03;;;4.25;86.78
19112;BME280;9688;51.906;8.376;2023-04-26T01:37:57;100921.44;;;4.22;87.60
19112;BME280;9688;51.906;8.376;2023-04-26T01:40:44;100926.69;;;4.19;86.70
19112;BME280;9688;51.906;8.376;2023-04-26T01:43:30;100925.81;;;4.17;87.11
19112;BME280;9688;51.906;8.376;2023-04-26T01:46:15;100925.84;;;4.14;87.17
19112;BME280;9688;51.906;8.376;2023-04-26T01:49:01;100931.97;;;4.13;87.87
19112;BME280;9688;51.906;8.376;2023-04-26T01:51:47;100932.84;;;4.12;87.39
19112;BME280;9688;51.906;8.376;2023-04-26T01:54:32;100925.00;;;4.12;87.55
19112;BME280;9688;51.906;8.376;2023-04-26T01:57:19;100927.63;;;4.09;87.88
19112;BME280;9688;51.906;8.376;2023-04-26T02:00:06;100922.41;;;4.08;88.10
19112;BME280;9688;51.906;8.376;2023-04-26T02:02:53;100928.53;;;4.03;87.58
19112;BME280;9688;51.906;8.376;2023-04-26T02:05:39;100924.19;;;4.02;87.44
19112;BME280;9688;51.906;8.376;2023-04-26T02:08:24;100933.78;;;3.99;87.79
19112;BME280;9688;51.906;8.376;2023-04-26T02:11:10;100929.44;;;3.98;87.77
19112;BME280;9688;51.906;8.376;2023-04-26T02:13:57;100927.72;;;3.95;88.57
19112;BME280;9688;51.906;8.376;2023-04-26T02:16:43;100933.84;;;3.94;88.29
19112;BME280;9688;51.906;8.376;2023-04-26T02:19:28;100926.84;;;3.93;88.01
19112;BME280;9688;51.906;8.376;2023-04-26T02:22:14;100932.09;;;3.92;88.89
19112;BME280;9688;51.906;8.376;2023-04-26T02:25:01;100928.63;;;3.91;88.82
19112;BME280;9688;51.906;8.376;2023-04-26T02:27:46;100928.63;;;3.90;88.23
19112;BME280;9688;51.906;8.376;2023-04-26T02:30:33;100926.03;;;3.88;88.74
19112;BME280;9688;51.906;8.376;2023-04-26T02:33:19;100934.78;;;3.86;89.08
19112;BME280;9688;51.906;8.376;2023-04-26T02:36:06;100926.91;;;3.84;88.46
19112;BME280;9688;51.906;8.376;2023-04-26T02:38:52;100925.19;;;3.82;88.47
19112;BME280;9688;51.906;8.376;2023-04-26T02:41:38;100926.06;;;3.79;88.65
19112;BME280;9688;51.906;8.376;2023-04-26T02:44:23;100933.91;;;3.79;89.49
19112;BME280;9688;51.906;8.376;2023-04-26T02:47:10;100934.78;;;3.79;89.06
19112;BME280;9688;51.906;8.376;2023-04-26T02:49:55;100940.00;;;3.81;88.61
19112;BME280;9688;51.906;8.376;2023-04-26T02:52:41;100942.66;;;3.78;89.41
19112;BME280;9688;51.906;8.376;2023-04-26T02:55:26;100940.03;;;3.76;88.58
19112;BME280;9688;51.906;8.376;2023-04-26T02:58:12;100928.72;;;3.74;89.75
19112;BME280;9688;51.906;8.376;2023-04-26T03:00:57;100940.06;;;3.75;88.94
19112;BME280;9688;51.906;8.376;2023-04-26T03:03:44;100940.94;;;3.72;89.04
19112;BME280;9688;51.906;8.376;2023-04-26T03:06:30;100932.22;;;3.70;89.04
19112;BME280;9688;51.906;8.376;2023-04-26T03:09:16;100939.19;;;3.70;89.15
19112;BME280;9688;51.906;8.376;2023-04-26T03:12:02;100936.59;;;3.68;89.21
19112;BME280;9688;51.906;8.376;2023-04-26T03:14:48;100939.19;;;3.68;89.88
19112;BME280;9688;51.906;8.376;2023-04-26T03:17:33;100937.47;;;3.67;90.11
19112;BME280;9688;51.906;8.376;2023-04-26T03:20:20;100937.47;;;3.67;89.96
19112;BME280;9688;51.906;8.376;2023-04-26T03:23:06;100941.84;;;3.67;90.10
19112;BME280;9688;51.906;8.376;2023-04-26T03:25:52;100937.47;;;3.66;90.03
19112;BME280;9688;51.906;8.376;2023-04-26T03:28:37;100934.00;;;3.64;89.94
19112;BME280;9688;51.906;8.376;2023-04-26T03:31:23;100933.97;;;3.65;89.79
19112;BME280;9688;51.906;8.376;2023-04-26T03:34:08;100934.84;;;3.66;90.12
19112;BME280;9688;51.906;8.376;2023-04-26T03:36:56;100933.16;;;3.63;89.99
19112;BME280;9688;51.906;8.376;2023-04-26T03:39:41;100924.41;;;3.64;89.44
19112;BME280;9688;51.906;8.376;2023-04-26T03:42:30;100920.91;;;3.65;90.19
19112;BME280;9688;51.906;8.376;2023-04-26T03:45:16;100929.66;;;3.64;90.03
19112;BME280;9688;51.906;8.376;2023-04-26T03:48:02;100929.69;;;3.58;89.79
19112;BME280;9688;51.906;8.376;2023-04-26T03:50:48;100923.59;;;3.54;89.29
19112;BME280;9688;51.906;8.376;2023-04-26T03:53:35;100922.72;;;3.51;90.11
19112;BME280;9688;51.906;8.376;2023-04-26T03:56:20;100932.34;;;3.46;90.16
19112;BME280;9688;51.906;8.376;2023-04-26T03:59:06;100930.63;;;3.40;89.49
19112;BME280;9688;51.906;8.376;2023-04-26T04:01:52;100930.63;;;3.37;89.96
19112;BME280;9688;51.906;8.376;2023-04-26T04:04:38;100931.53;;;3.36;90.69
19112;BME280;9688;51.906;8.376;2023-04-26T04:07:23;100935.00;;;3.37;90.16
19112;BME280;9688;51.906;8.376;2023-04-26T04:10:10;100928.91;;;3.34;90.48
19112;BME280;9688;51.906;8.376;2023-04-26T04:12:59;100922.81;;;3.32;90.39
19112;BME280;9688;51.906;8.376;2023-04-26T04:15:46;100932.38;;;3.32;90.31
19112;BME280;9688;51.906;8.376;2023-04-26T04:18:31;100933.28;;;3.31;90.47
19112;BME280;9688;51.906;8.376;2023-04-26T04:21:16;100932.41;;;3.33;89.99
19112;BME280;9688;51.906;8.376;2023-04-26T04:24:03;100934.09;;;3.38;90.45
19112;BME280;9688;51.906;8.376;2023-04-26T04:26:50;100928.88;;;3.38;90.76
19112;BME280;9688;51.906;8.376;2023-04-26T04:29:35;100940.22;;;3.37;91.13
19112;BME280;9688;51.906;8.376;2023-04-26T04:32:21;100936.72;;;3.38;90.27
19112;BME280;9688;51.906;8.376;2023-04-26T04:35:08;100940.19;;;3.44;90.48
19112;BME280;9688;51.906;8.376;2023-04-26T04:37:54;100948.88;;;3.46;90.40
19112;BME280;9688;51.906;8.376;2023-04-26T04:40:41;100950.63;;;3.55;90.21
19112;BME280;9688;51.906;8.376;2023-04-26T04:43:28;100947.91;;;3.66;89.94
19112;BME280;9688;51.906;8.376;2023-04-26T04:46:13;100948.75;;;3.75;90.56
19112;BME280;9688;51.906;8.376;2023-04-26T04:48:59;100951.31;;;3.86;89.83
19112;BME280;9688;51.906;8.376;2023-04-26T04:51:45;100942.38;;;4.18;89.51
19112;BME280;9688;51.906;8.376;2023-04-26T04:54:31;100953.97;;;4.92;87.18
19112;BME280;9688;51.906;8.376;2023-04-26T04:57:16;100950.31;;;5.09;87.45
19112;BME280;9688;51.906;8.376;2023-04-26T05:00:07;100954.53;;;5.95;86.13
19112;BME280;9688;51.906;8.376;2023-04-26T05:02:53;100956.09;;;7.15;82.85
19112;BME280;9688;51.906;8.376;2023-04-26T05:05:39;100954.09;;;8.09;80.70
19112;BME280;9688;51.906;8.376;2023-04-26T05:08:24;100958.75;;;8.72;79.32
19112;BME280;9688;51.906;8.376;2023-04-26T05:11:10;100955.19;;;9.40;76.97
19112;BME280;9688;51.906;8.376;2023-04-26T05:13:56;100954.94;;;9.79;75.79
19112;BME280;9688;51.906;8.376;2023-04-26T05:16:43;100952.47;;;10.02;74.69
19112;BME280;9688;51.906;8.376;2023-04-26T05:19:30;100954.22;;;10.58;73.15
19112;BME280;9688;51.906;8.376;2023-04-26T05:22:16;100958.97;;;10.48;73.58
19112;BME280;9688;51.906;8.376;2023-04-26T05:25:07;100949.69;;;9.77;74.17
19112;BME280;9688;51.906;8.376;2023-04-26T05:27:53;100954.72;;;9.57;74.53
19112;BME280;9688;51.906;8.376;2023-04-26T05:30:39;100954.56;;;9.61;73.73
19112;BME280;9688;51.906;8.376;2023-04-26T05:33:26;100952.44;;;9.74;73.12
19112;BME280;9688;51.906;8.376;2023-04-26T05:36:12;100956.19;;;9.36;74.24
19112;BME280;9688;51.906;8.376;2023-04-26T05:38:57;100961.03;;;8.86;74.99
19112;BME280;9688;51.906;8.376;2023-04-26T05:41:43;100966.56;;;8.77;74.19
19112;BME280;9688;51.906;8.376;2023-04-26T05:44:31;100967.44;;;8.76;74.27
19112;BME280;9688;51.906;8.376;2023-04-26T05:47:18;100973.63;;;8.75;74.73
19112;BME280;9688;51.906;8.376;2023-04-26T05:50:09;100979.25;;;8.95;74.25
19112;BME280;9688;51.906;8.376;2023-04-26T05:52:57;100975.44;;;9.07;73.30
19112;BME280;9688;51.906;8.376;2023-04-26T05:55:48;100969.69;;;8.92;73.68
19112;BME280;9688;51.906;8.376;2023-04-26T05:58:38;100975.50;;;8.71;73.97
19112;BME280;9688;51.906;8.376;2023-04-26T06:01:23;100978.81;;;8.42;74.23
19112;BME280;9688;51.906;8.376;2023-04-26T06:04:09;100983.59;;;8.24;74.86
19112;BME280;9688;51.906;8.376;2023-04-26T06:06:56;100977.84;;;8.07;74.93
19112;BME280;9688;51.906;8.376;2023-04-26T06:09:41;100980.78;;;8.32;74.50
19112;BME280;9688;51.906;8.376;2023-04-26T06:12:29;100983.13;;;8.46;73.99
19112;BME280;9688;51.906;8.376;2023-04-26T06:15:15;100983.28;;;8.40;74.21
19112;BME280;9688;51.906;8.376;2023-04-26T06:18:01;100979.31;;;8.20;74.40
19112;BME280;9688;51.906;8.376;2023-04-26T06:20:46;100996.16;;;8.12;74.92
19112;BME280;9688;51.906;8.376;2023-04-26T06:23:33;100989.00;;;8.18;74.57
19112;BME280;9688;51.906;8.376;2023-04-26T06:26:19;100997.31;;;8.40;74.67
19112;BME280;9688;51.906;8.376;2023-04-26T06:29:05;101001.38;;;8.89;73.70
19112;BME280;9688;51.906;8.376;2023-04-26T06:31:53;101006.81;;;9.18;73.55
19112;BME280;9688;51.906;8.376;2023-04-26T06:34:41;101006.91;;;9.14;72.76
19112;BME280;9688;51.906;8.376;2023-04-26T06:37:28;101012.19;;;9.14;72.97
19112;BME280;9688;51.906;8.376;2023-04-26T06:40:15;101009.75;;;9.07;72.42
19112;BME280;9688;51.906;8.376;2023-04-26T06:43:02;101005.84;;;8.87;73.39
19112;BME280;9688;51.906;8.376;2023-04-26T06:45:48;101011.88;;;8.92;72.76
19112;BME280;9688;51.906;8.376;2023-04-26T06:48:35;101006.63;;;8.91;72.92
19112;BME280;9688;51.906;8.376;2023-04-26T06:51:21;101010.88;;;8.95;73.35
19112;BME280;9688;51.906;8.376;2023-04-26T06:54:06;101001.31;;;8.92;73.29
19112;BME280;9688;51.906;8.376;2023-04-26T06:56:54;101009.41;;;8.85;72.87
19112;BME280;9688;51.906;8.376;2023-04-26T06:59:42;101012.13;;;8.82;73.34
19112;BME280;9688;51.906;8.376;2023-04-26T07:02:31;101008.78;;;9.09;73.16
19112;BME280;9688;51.906;8.376;2023-04-26T07:05:18;101018.63;;;9.37;72.47
19112;BME280;9688;51.906;8.376;2023-04-26T07:08:05;101019.59;;;9.33;72.94
19112;BME280;9688;51.906;8.376;2023-04-26T07:10:55;101010.25;;;9.52;72.90
19112;BME280;9688;51.906;8.376;2023-04-26T07:13:42;101017.31;;;9.52;72.22
19112;BME280;9688;51.906;8.376;2023-04-26T07:16:28;101016.00;;;9.67;72.58
19112;BME280;9688;51.906;8.376;2023-04-26T07:19:14;101018.78;;;9.93;71.03
19112;BME280;9688;51.906;8.376;2023-04-26T07:22:01;101014.28;;;10.25;70.86
19112;BME280;9688;51.906;8.376;2023-04-26T07:24:46;101017.00;;;10.53;69.67
19112;BME280;9688;51.906;8.376;2023-04-26T07:27:32;101010.88;;;10.78;68.33
19112;BME280;9688;51.906;8.376;2023-04-26T07:30:20;101010.88;;;11.04;68.71
19112;BME280;9688;51.906;8.376;2023-04-26T07:33:06;101011.66;;;10.81;68.94
19112;BME280;9688;51.906;8.376;2023-04-26T07:35:55;101013.91;;;10.67;68.89
19112;BME280;9688;51.906;8.376;2023-04-26T07:38:41;101024.75;;;10.58;68.08
19112;BME280;9688;51.906;8.376;2023-04-26T07:41:27;101018.72;;;10.54;68.17
19112;BME280;9688;51.906;8.376;2023-04-26T07:44:13;101016.38;;;10.71;68.02
19112;BME280;9688;51.906;8.376;2023-04-26T07:47:00;101013.25;;;10.87;67.49
19112;BME280;9688;51.906;8.376;2023-04-26T07:49:46;101013.25;;;10.87;67.34
19112;BME280;9688;51.906;8.376;2023-04-26T07:52:32;101012.78;;;11.01;67.07
19112;BME280;9688;51.906;8.376;2023-04-26T07:55:18;101011.97;;;11.24;66.24
19112;BME280;9688;51.906;8.376;2023-04-26T07:58:05;101015.00;;;11.13;66.25
19112;BME280;9688;51.906;8.376;2023-04-26T08:00:51;101015.72;;;10.91;66.83
19112;BME280;9688;51.906;8.376;2023-04-26T08:03:39;101005.09;;;11.20;65.80
19112;BME280;9688;51.906;8.376;2023-04-26T08:06:25;101010.88;;;11.54;64.69
19112;BME280;9688;51.906;8.376;2023-04-26T08:09:12;101004.22;;;11.68;64.84
19112;BME280;9688;51.906;8.376;2023-04-26T08:11:59;101007.38;;;11.77;63.38
19112;BME280;9688;51.906;8.376;2023-04-26T08:14:46;101007.72;;;11.93;63.86
19112;BME280;9688;51.906;8.376;2023-04-26T08:17:34;101001.00;;;11.83;63.18
19112;BME280;9688;51.906;8.376;2023-04-26T08:20:20;101005.72;;;11.75;62.71
19112;BME280;9688;51.906;8.376;2023-04-26T08:23:08;101012.00;;;11.72;61.93
19112;BME280;9688;51.906;8.376;2023-04-26T08:25:55;100999.31;;;11.57;62.03
19112;BME280;9688;51.906;8.376;2023-04-26T08:28:41;100998.31;;;12.08;61.35
19112;BME280;9688;51.906;8.376;2023-04-26T08:31:27;101001.81;;;11.87;61.29
19112;BME280;9688;51.906;8.376;2023-04-26T08:34:14;100998.69;;;11.74;60.96
19112;BME280;9688;51.906;8.376;2023-04-26T08:37:02;101007.50;;;11.74;59.97
19112;BME280;9688;51.906;8.376;2023-04-26T08:39:50;100994.31;;;11.98;59.61
19112;BME280;9688;51.906;8.376;2023-04-26T08:42:38;100996.84;;;12.01;58.73
19112;BME280;9688;51.906;8.376;2023-04-26T08:45:24;101001.81;;;11.87;59.75
19112;BME280;9688;51.906;8.376;2023-04-26T08:48:12;101000.94;;;11.61;59.63
19112;BME280;9688;51.906;8.376;2023-04-26T08:51:00;100995.50;;;11.41;59.74
19112;BME280;9688;51.906;8.376;2023-04-26T08:53:49;100999.81;;;11.18;61.71
19112;BME280;9688;51.906;8.376;2023-04-26T08:56:37;101004.84;;;11.01;60.65
19112;BME280;9688;51.906;8.376;2023-04-26T08:59:23;101001.84;;;10.85;61.20
19112;BME280;9688;51.906;8.376;2023-04-26T09:02:13;100995.81;;;10.81;61.19
19112;BME280;9688;51.906;8.376;2023-04-26T09:05:02;100999.31;;;10.82;61.07
19112;BME280;9688;51.906;8.376;2023-04-26T09:07:53;100996.31;;;10.92;60.98
19112;BME280;9688;51.906;8.376;2023-04-26T09:10:43;100999.19;;;11.11;59.79
19112;BME280;9688;51.906;8.376;2023-04-26T09:13:29;101011.50;;;11.12;60.67
19112;BME280;9688;51.906;8.376;2023-04-26T09:16:15;101010.88;;;11.04;60.52
19112;BME280;9688;51.906;8.376;2023-04-26T09:19:01;101010.28;;;10.96;60.75
19112;BME280;9688;51.906;8.376;2023-04-26T09:21:47;101005.56;;;10.79;61.16
19112;BME280;9688;51.906;8.376;2023-04-26T09:24:45;101013.91;;;10.67;61.43
19112;BME280;9688;51.906;8.376;2023-04-26T09:27:37;101018.47;;;10.62;62.08
19112;BME280;9688;51.906;8.376;2023-04-26T09:30:26;101025.97;;;10.47;62.42
19112;BME280;9688;51.906;8.376;2023-04-26T09:33:13;101027.22;;;10.36;62.86
19112;BME280;9688;51.906;8.376;2023-04-26T09:36:11;101029.38;;;10.21;63.33
19112;BME280;9688;51.906;8.376;2023-04-26T09:38:59;101025.25;;;10.13;63.13
19112;BME280;9688;51.906;8.376;2023-04-26T09:41:44;101028.97;;;10.05;63.80
19112;BME280;9688;51.906;8.376;2023-04-26T09:44:32;101017.53;;;10.05;64.29
19112;BME280;9688;51.906;8.376;2023-04-26T09:47:20;101021.88;;;10.08;64.09
19112;BME280;9688;51.906;8.376;2023-04-26T09:50:07;101023.03;;;10.29;63.54
19112;BME280;9688;51.906;8.376;2023-04-26T09:52:53;101026.78;;;10.49;63.28
19112;BME280;9688;51.906;8.376;2023-04-26T09:55:40;101031.16;;;10.79;62.16
19112;BME280;9688;51.906;8.376;2023-04-26T09:58:25;101028.84;;;10.94;62.35
19112;BME280;9688;51.906;8.376;2023-04-26T10:01:14;101027.41;;;11.11;61.65
19112;BME280;9688;51.906;8.376;2023-04-26T10:04:00;101024.69;;;11.39;61.82
19112;BME280;9688;51.906;8.376;2023-04-26T10:06:47;101013.09;;;11.67;60.25
19112;BME280;9688;51.906;8.376;2023-04-26T10:09:33;101021.44;;;11.79;60.47
19112;BME280;9688;51.906;8.376;2023-04-26T10:12:20;101018.59;;;11.86;60.14
19112;BME280;9688;51.906;8.376;2023-04-26T10:15:09;101016.22;;;11.78;59.60
19112;BME280;9688;51.906;8.376;2023-04-26T10:17:57;101014.09;;;11.64;60.40
19112;BME280;9688;51.906;8.376;2023-04-26T10:20:46;101020.97;;;11.45;60.15
19112;BME280;9688;51.906;8.376;2023-04-26T10:23:34;101016.94;;;11.33;60.80
19112;BME280;9688;51.906;8.376;2023-04-26T10:26:48;101010.41;;;11.18;60.70
19112;BME280;9688;51.906;8.376;2023-04-26T10:30:06;101012.94;;;10.96;61.34
19112;BME280;9688;51.906;8.376;2023-04-26T10:33:15;101003.31;;;10.93;60.51
19112;BME280;9688;51.906;8.376;2023-04-26T10:36:09;101002.84;;;11.07;60.33
19112;BME280;9688;51.906;8.376;2023-04-26T10:39:17;100995.13;;;11.26;60.11
19112;BME280;9688;51.906;8.376;2023-04-26T10:42:23;100986.25;;;11.52;59.88
19112;BME280;9688;51.906;8.376;2023-04-26T10:45:26;100983.97;;;11.67;59.08
19112;BME280;9688;51.906;8.376;2023-04-26T10:48:17;100982.88;;;11.72;58.64
19112;BME280;9688;51.906;8.376;2023-04-26T10:51:06;100989.91;;;11.73;58.55
19112;BME280;9688;51.906;8.376;2023-04-26T10:53:58;100985.28;;;11.78;58.31
19112;BME280;9688;51.906;8.376;2023-04-26T10:56:52;100976.78;;;11.94;58.39
19112;BME280;9688;51.906;8.376;2023-04-26T10:59:38;100974.16;;;12.16;58.20
19112;BME280;9688;51.906;8.376;2023-04-26T11:02:43;100976.28;;;12.30;57.17
19112;BME280;9688;51.906;8.376;2023-04-26T11:05:35;100972.72;;;12.53;56.62
19112;BME280;9688;51.906;8.376;2023-04-26T11:08:26;100969.16;;;12.74;55.31
19112;BME280;9688;51.906;8.376;2023-04-26T11:11:16;100967.78;;;12.86;54.62
19112;BME280;9688;51.906;8.376;2023-04-26T11:14:04;100970.22;;;12.90;53.34
19112;BME280;9688;51.906;8.376;2023-04-26T11:16:50;100970.50;;;13.05;52.67
19112;BME280;9688;51.906;8.376;2023-04-26T11:19:36;100969.38;;;13.10;52.91
19112;BME280;9688;51.906;8.376;2023-04-26T11:22:24;100957.69;;;13.14;51.63
19112;BME280;9688;51.906;8.376;2023-04-26T11:25:11;100962.31;;;13.31;51.79
19112;BME280;9688;51.906;8.376;2023-04-26T11:27:59;100960.69;;;13.48;51.07
19112;BME280;9688;51.906;8.376;2023-04-26T11:30:47;100957.44;;;13.41;51.23
19112;BME280;9688;51.906;8.376;2023-04-26T11:33:33;100967.47;;;13.34;50.71
19112;BME280;9688;51.906;8.376;2023-04-26T11:36:21;100962.53;;;13.25;51.11
19112;BME280;9688;51.906;8.376;2023-04-26T11:39:08;100967.59;;;13.11;51.24
19112;BME280;9688;51.906;8.376;2023-04-26T11:41:55;100972.97;;;12.89;51.96
19112;BME280;9688;51.906;8.376;2023-04-26T11:44:50;100976.78;;;12.61;52.21
19112;BME280;9688;51.906;8.376;2023-04-26T11:47:38;100964.31;;;12.41;52.45
19112;BME280;9688;51.906;8.376;2023-04-26T11:50:25;100973.31;;;12.37;52.47
19112;BME280;9688;51.906;8.376;2023-04-26T11:53:11;100977.94;;;12.32;51.79
19112;BME280;9688;51.906;8.376;2023-04-26T11:55:58;100968.19;;;12.33;51.99
19112;BME280;9688;51.906;8.376;2023-04-26T11:58:45;100979.34;;;12.19;51.72
19112;BME280;9688;51.906;8.376;2023-04-26T12:01:32;100983.34;;;12.07;50.64
19112;BME280;9688;51.906;8.376;2023-04-26T12:04:18;100984.19;;;12.08;51.13
19112;BME280;9688;51.906;8.376;2023-04-26T12:07:04;100988.59;;;12.09;51.14
19112;BME280;9688;51.906;8.376;2023-04-26T12:09:50;100995.03;;;12.01;50.49
19112;BME280;9688;51.906;8.376;2023-04-26T12:12:42;100985.75;;;12.13;50.41
19112;BME280;9688;51.906;8.376;2023-04-26T12:15:32;100982.81;;;12.21;50.70
19112;BME280;9688;51.906;8.376;2023-04-26T12:18:18;100987.31;;;12.41;49.53
19112;BME280;9688;51.906;8.376;2023-04-26T12:21:03;100993.47;;;12.63;48.91
19112;BME280;9688;51.906;8.376;2023-04-26T12:23:49;100984.34;;;12.70;48.36
19112;BME280;9688;51.906;8.376;2023-04-26T12:26:42;100989.25;;;12.80;48.43
19112;BME280;9688;51.906;8.376;2023-04-26T12:29:30;100979.41;;;12.83;48.37
19112;BME280;9688;51.906;8.376;2023-04-26T12:32:16;100982.66;;;12.68;48.12
19112;BME280;9688;51.906;8.376;2023-04-26T12:35:02;100986.28;;;12.45;47.83
19112;BME280;9688;51.906;8.376;2023-04-26T12:37:49;100986.56;;;12.15;48.13
19112;BME280;9688;51.906;8.376;2023-04-26T12:40:37;100985.94;;;12.09;48.91
19112;BME280;9688;51.906;8.376;2023-04-26T12:43:24;100985.38;;;12.00;48.95
19112;BME280;9688;51.906;8.376;2023-04-26T12:46:13;100984.81;;;11.92;50.42
19112;BME280;9688;51.906;8.376;2023-04-26T12:48:59;100990.16;;;11.91;50.82
19112;BME280;9688;51.906;8.376;2023-04-26T12:51:45;100995.44;;;11.91;50.41
19112;BME280;9688;51.906;8.376;2023-04-26T12:54:31;100998.22;;;11.88;51.15
19112;BME280;9688;51.906;8.376;2023-04-26T12:57:18;100995.19;;;11.73;50.71
19112;BME280;9688;51.906;8.376;2023-04-26T13:00:09;100995.47;;;11.66;50.72
19112;BME280;9688;51.906;8.376;2023-04-26T13:02:58;101001.69;;;11.65;51.77
19112;BME280;9688;51.906;8.376;2023-04-26T13:05:43;100998.28;;;11.61;51.27
19112;BME280;9688;51.906;8.376;2023-04-26T13:08:29;101000.13;;;11.59;52.03
19112;BME280;9688;51.906;8.376;2023-04-26T13:11:19;100993.78;;;11.63;52.76
19112;BME280;9688;51.906;8.376;2023-04-26T13:14:05;100994.84;;;11.59;52.25
19112;BME280;9688;51.906;8.376;2023-04-26T13:16:50;101002.00;;;11.55;53.65
19112;BME280;9688;51.906;8.376;2023-04-26T13:19:39;100995.47;;;11.42;53.30
19112;BME280;9688;51.906;8.376;2023-04-26T13:22:25;101002.03;;;11.30;54.54
19112;BME280;9688;51.906;8.376;2023-04-26T13:25:16;100999.38;;;11.30;54.06
19112;BME280;9688;51.906;8.376;2023-04-26T13:28:05;100995.63;;;11.37;54.43
19112;BME280;9688;51.906;8.376;2023-04-26T13:30:51;100995.47;;;11.42;53.89
19112;BME280;9688;51.906;8.376;2023-04-26T13:33:37;100992.63;;;11.47;53.57
19112;BME280;9688;51.906;8.376;2023-04-26T13:36:24;100992.44;;;11.53;54.06
19112;BME280;9688;51.906;8.376;2023-04-26T13:39:11;101005.38;;;11.60;54.32
19112;BME280;9688;51.906;8.376;2023-04-26T13:41:58;100995.81;;;11.56;54.38
19112;BME280;9688;51.906;8.376;2023-04-26T13:44:45;100991.97;;;11.65;53.56
19112;BME280;9688;51.906;8.376;2023-04-26T13:47:31;100992.00;;;11.64;54.06
19112;BME280;9688;51.906;8.376;2023-04-26T13:50:19;100996.28;;;11.68;53.28
19112;BME280;9688;51.906;8.376;2023-04-26T13:53:09;100997.69;;;11.78;53.72
19112;BME280;9688;51.906;8.376;2023-04-26T13:55:56;100999.31;;;11.80;53.13
19112;BME280;9688;51.906;8.376;2023-04-26T13:58:45;101006.16;;;11.88;52.59
19112;BME280;9688;51.906;8.376;2023-04-26T14:01:32;100996.19;;;11.94;53.11
19112;BME280;9688;51.906;8.376;2023-04-26T14:04:19;101007.72;;;11.93;52.63
19112;BME280;9688;51.906;8.376;2023-04-26T14:07:08;101001.47;;;11.94;52.05
19112;BME280;9688;51.906;8.376;2023-04-26T14:09:58;101004.41;;;12.10;52.29
19112;BME280;9688;51.906;8.376;2023-04-26T14:12:49;101002.84;;;12.28;51.39
19112;BME280;9688;51.906;8.376;2023-04-26T14:15:37;101000.09;;;12.31;52.11
19112;BME280;9688;51.906;8.376;2023-04-26T14:18:23;100995.47;;;12.36;50.96
19112;BME280;9688;51.906;8.376;2023-04-26T14:21:11;101003.41;;;12.36;51.58
19112;BME280;9688;51.906;8.376;2023-04-26T14:23:58;101006.72;;;12.41;51.63
19112;BME280;9688;51.906;8.376;2023-04-26T14:26:46;101004.56;;;12.29;51.28
19112;BME280;9688;51.906;8.376;2023-04-26T14:29:32;101001.97;;;12.27;52.01
19112;BME280;9688;51.906;8.376;2023-04-26T14:32:21;100999.28;;;12.29;51.69
19112;BME280;9688;51.906;8.376;2023-04-26T14:35:11;100999.88;;;12.36;50.92
19112;BME280;9688;51.906;8.376;2023-04-26T14:37:57;100996.03;;;12.44;51.51
19112;BME280;9688;51.906;8.376;2023-04-26T14:40:44;100994.97;;;12.48;51.14
19112;BME280;9688;51.906;8.376;2023-04-26T14:43:31;100990.47;;;12.50;50.88
19112;BME280;9688;51.906;8.376;2023-04-26T14:46:17;100996.44;;;12.34;50.76
19112;BME280;9688;51.906;8.376;2023-04-26T14:49:05;100993.69;;;12.13;50.83
19112;BME280;9688;51.906;8.376;2023-04-26T14:51:52;100987.81;;;12.05;51.58